sensor_id;sensor_type;location;lat;lon;timestamp;pressure;altitude;pressure_sealevel;temperature;humidity
76603;BME280;65075;48.390;17.598;2023-04-06T00:01:55;100037.09;;;5.59;39.89
76603;BME280;65075;48.390;17.598;2023-04-06T00:04:20;100037.38;;;4.90;41.57
76603;BME280;65075;48.390;17.598;2023-04-06T00:06:46;100020.91;;;5.16;40.85
76603;BME280;65075;48.390;17.598;2023-04-06T00:09:12;99990.47;;;5.20;40.51
76603;BME280;65075;48.390;17.598;2023-04-06T00:11:37;100036.78;;;5.67;39.85
76603;BME280;65075;48.390;17.598;2023-04-06T00:14:03;100033.34;;;5.42;40.87
76603;BME280;65075;48.390;17.598;2023-04-06T00:16:28;100021.13;;;5.69;39.43
76603;BME280;65075;48.390;17.598;2023-04-06T00:18:54;100025.38;;;5.04;41.09
76603;BME280;65075;48.390;17.598;2023-04-06T00:21:19;99998.28;;;5.29;40.01
76603;BME280;65075;48.390;17.598;2023-04-06T00:23:45;100002.69;;;4.62;41.80
76603;BME280;65075;48.390;17.598;2023-04-06T00:26:11;100020.69;;;5.54;40.10
76603;BME280;65075;48.390;17.598;2023-04-06T00:28:39;100019.69;;;5.12;40.84
76603;BME280;65075;48.390;17.598;2023-04-06T00:31:05;100023.78;;;5.57;39.67
76603;BME280;65075;48.390;17.598;2023-04-06T00:33:30;100013.00;;;5.51;40.12
76603;BME280;65075;48.390;17.598;2023-04-06T00:35:56;100012.59;;;4.68;41.81
76603;BME280;65075;48.390;17.598;2023-04-06T00:38:22;100021.41;;;4.57;42.10
76603;BME280;65075;48.390;17.598;2023-04-06T00:40:47;100009.75;;;5.06;41.36
76603;BME280;65075;48.390;17.598;2023-04-06T00:43:14;100007.03;;;4.63;42.48
76603;BME280;65075;48.390;17.598;2023-04-06T00:45:41;100001.03;;;3.98;43.86
76603;BME280;65075;48.390;17.598;2023-04-06T00:48:08;100008.13;;;4.55;42.90
76603;BME280;65075;48.390;17.598;2023-04-06T00:50:34;99981.59;;;3.83;43.18
76603;BME280;65075;48.390;17.598;2023-04-06T00:52:59;99996.91;;;3.96;43.36
76603;BME280;65075;48.390;17.598;2023-04-06T00:55:29;100023.91;;;4.58;43.09
76603;BME280;65075;48.390;17.598;2023-04-06T00:57:57;100019.94;;;5.29;41.19
76603;BME280;65075;48.390;17.598;2023-04-06T01:00:24;100026.84;;;5.43;40.72
76603;BME280;65075;48.390;17.598;2023-04-06T01:02:50;100016.84;;;4.82;41.51
76603;BME280;65075;48.390;17.598;2023-04-06T01:05:15;100016.47;;;3.85;44.37
76603;BME280;65075;48.390;17.598;2023-04-06T01:07:41;100012.59;;;4.05;43.72
76603;BME280;65075;48.390;17.598;2023-04-06T01:10:07;100019.09;;;4.36;43.18
76603;BME280;65075;48.390;17.598;2023-04-06T01:12:33;100014.44;;;4.12;43.59
76603;BME280;65075;48.390;17.598;2023-04-06T01:14:59;100013.19;;;3.76;44.53
76603;BME280;65075;48.390;17.598;2023-04-06T01:17:25;100004.25;;;3.25;45.57
76603;BME280;65075;48.390;17.598;2023-04-06T01:19:51;100006.34;;;4.12;43.72
76603;BME280;65075;48.390;17.598;2023-04-06T01:22:19;100014.22;;;5.18;41.69
76603;BME280;65075;48.390;17.598;2023-04-06T01:24:46;99999.41;;;5.57;40.15
76603;BME280;65075;48.390;17.598;2023-04-06T01:27:13;100002.47;;;4.01;43.40
76603;BME280;65075;48.390;17.598;2023-04-06T01:29:39;100009.28;;;4.66;42.60
76603;BME280;65075;48.390;17.598;2023-04-06T01:32:08;100004.84;;;3.84;43.99
76603;BME280;65075;48.390;17.598;2023-04-06T01:34:34;100007.72;;;4.52;42.67
76603;BME280;65075;48.390;17.598;2023-04-06T01:37:00;100011.22;;;4.59;43.24
76603;BME280;65075;48.390;17.598;2023-04-06T01:39:26;99932.69;;;4.29;42.40
76603;BME280;65075;48.390;17.598;2023-04-06T01:41:51;99992.97;;;5.22;41.13
76603;BME280;65075;48.390;17.598;2023-04-06T01:44:18;99992.69;;;4.62;42.40
76603;BME280;65075;48.390;17.598;2023-04-06T01:46:44;99993.31;;;5.07;41.40
76603;BME280;65075;48.390;17.598;2023-04-06T01:49:10;100004.53;;;5.29;41.43
76603;BME280;65075;48.390;17.598;2023-04-06T01:51:36;99991.91;;;4.80;42.57
76603;BME280;65075;48.390;17.598;2023-04-06T01:54:01;100001.97;;;3.09;45.84
76603;BME280;65075;48.390;17.598;2023-04-06T01:56:27;100005.59;;;3.98;44.54
76603;BME280;65075;48.390;17.598;2023-04-06T01:58:52;99997.22;;;3.68;44.96
76603;BME280;65075;48.390;17.598;2023-04-06T02:01:24;100010.28;;;4.47;44.15
76603;BME280;65075;48.390;17.598;2023-04-06T02:03:50;100003.25;;;5.13;41.82
76603;BME280;65075;48.390;17.598;2023-04-06T02:06:15;99946.13;;;5.40;40.76
76603;BME280;65075;48.390;17.598;2023-04-06T02:08:41;99988.84;;;5.56;40.48
76603;BME280;65075;48.390;17.598;2023-04-06T02:11:07;99953.16;;;4.43;42.56
76603;BME280;65075;48.390;17.598;2023-04-06T02:13:32;99970.13;;;5.18;41.39
76603;BME280;65075;48.390;17.598;2023-04-06T02:15:58;99991.81;;;5.84;40.17
76603;BME280;65075;48.390;17.598;2023-04-06T02:18:24;99994.09;;;5.33;40.48
76603;BME280;65075;48.390;17.598;2023-04-06T02:20:50;99996.63;;;5.64;40.51
76603;BME280;65075;48.390;17.598;2023-04-06T02:23:16;99923.75;;;5.33;40.60
76603;BME280;65075;48.390;17.598;2023-04-06T02:25:41;99989.72;;;5.50;40.48
76603;BME280;65075;48.390;17.598;2023-04-06T02:28:07;99989.59;;;5.45;41.02
76603;BME280;65075;48.390;17.598;2023-04-06T02:30:33;99942.31;;;5.29;40.48
76603;BME280;65075;48.390;17.598;2023-04-06T02:33:02;99950.63;;;5.46;40.17
76603;BME280;65075;48.390;17.598;2023-04-06T02:35:28;99984.72;;;5.83;40.11
76603;BME280;65075;48.390;17.598;2023-04-06T02:37:54;99981.63;;;5.50;41.48
76603;BME280;65075;48.390;17.598;2023-04-06T02:40:20;99987.31;;;5.24;41.57
76603;BME280;65075;48.390;17.598;2023-04-06T02:42:45;99980.41;;;5.09;42.07
76603;BME280;65075;48.390;17.598;2023-04-06T02:45:11;99965.06;;;3.73;45.27
76603;BME280;65075;48.390;17.598;2023-04-06T02:47:36;99988.13;;;3.05;47.39
76603;BME280;65075;48.390;17.598;2023-04-06T02:50:02;99966.09;;;4.84;42.91
76603;BME280;65075;48.390;17.598;2023-04-06T02:52:28;99978.13;;;5.79;41.32
76603;BME280;65075;48.390;17.598;2023-04-06T02:54:56;99975.06;;;6.05;40.29
76603;BME280;65075;48.390;17.598;2023-04-06T02:57:21;99987.59;;;5.88;40.52
76603;BME280;65075;48.390;17.598;2023-04-06T02:59:47;99983.66;;;6.02;40.44
76603;BME280;65075;48.390;17.598;2023-04-06T03:02:12;99974.47;;;5.73;40.39
76603;BME280;65075;48.390;17.598;2023-04-06T03:04:38;99972.97;;;5.23;41.20
76603;BME280;65075;48.390;17.598;2023-04-06T03:07:03;99950.34;;;5.36;41.28
76603;BME280;65075;48.390;17.598;2023-04-06T03:09:29;99976.00;;;5.81;41.12
76603;BME280;65075;48.390;17.598;2023-04-06T03:11:55;99971.22;;;5.65;41.20
76603;BME280;65075;48.390;17.598;2023-04-06T03:14:21;99951.22;;;3.94;43.60
76603;BME280;65075;48.390;17.598;2023-04-06T03:16:48;99983.09;;;4.11;44.25
76603;BME280;65075;48.390;17.598;2023-04-06T03:19:14;99969.81;;;3.27;46.29
76603;BME280;65075;48.390;17.598;2023-04-06T03:21:40;99951.50;;;3.42;46.40
76603;BME280;65075;48.390;17.598;2023-04-06T03:24:06;99980.28;;;2.84;47.78
76603;BME280;65075;48.390;17.598;2023-04-06T03:26:32;99978.81;;;4.77;44.20
76603;BME280;65075;48.390;17.598;2023-04-06T03:28:58;99945.91;;;5.41;41.63
76603;BME280;65075;48.390;17.598;2023-04-06T03:31:23;99977.78;;;4.29;44.10
76603;BME280;65075;48.390;17.598;2023-04-06T03:33:49;99981.44;;;5.08;42.78
76603;BME280;65075;48.390;17.598;2023-04-06T03:36:15;99973.63;;;5.00;43.28
76603;BME280;65075;48.390;17.598;2023-04-06T03:38:40;99984.75;;;5.29;42.32
76603;BME280;65075;48.390;17.598;2023-04-06T03:41:06;99991.56;;;3.32;47.64
76603;BME280;65075;48.390;17.598;2023-04-06T03:43:31;99973.78;;;5.24;42.71
76603;BME280;65075;48.390;17.598;2023-04-06T03:45:57;99982.97;;;5.59;41.75
76603;BME280;65075;48.390;17.598;2023-04-06T03:48:22;99974.94;;;6.00;40.75
76603;BME280;65075;48.390;17.598;2023-04-06T03:50:48;99986.56;;;5.53;41.71
76603;BME280;65075;48.390;17.598;2023-04-06T03:53:13;99981.75;;;5.55;42.60
76603;BME280;65075;48.390;17.598;2023-04-06T03:55:39;99980.09;;;5.90;40.65
76603;BME280;65075;48.390;17.598;2023-04-06T03:58:05;99973.09;;;6.12;40.03
76603;BME280;65075;48.390;17.598;2023-04-06T04:00:30;99989.09;;;5.66;41.72
76603;BME280;65075;48.390;17.598;2023-04-06T04:02:58;99991.38;;;5.51;41.59
76603;BME280;65075;48.390;17.598;2023-04-06T04:05:23;99989.69;;;5.68;41.16
76603;BME280;65075;48.390;17.598;2023-04-06T04:07:51;99987.16;;;5.73;41.74
76603;BME280;65075;48.390;17.598;2023-04-06T04:10:17;99973.09;;;6.12;40.73
76603;BME280;65075;48.390;17.598;2023-04-06T04:12:43;99987.63;;;5.52;41.85
76603;BME280;65075;48.390;17.598;2023-04-06T04:15:09;99972.09;;;5.95;40.76
76603;BME280;65075;48.390;17.598;2023-04-06T04:17:35;99989.34;;;6.12;41.09
76603;BME280;65075;48.390;17.598;2023-04-06T04:20:01;99992.56;;;5.91;41.49
76603;BME280;65075;48.390;17.598;2023-04-06T04:22:27;99987.16;;;5.55;42.48
76603;BME280;65075;48.390;17.598;2023-04-06T04:24:53;100002.78;;;5.71;42.15
76603;BME280;65075;48.390;17.598;2023-04-06T04:27:19;99986.56;;;5.53;42.80
76603;BME280;65075;48.390;17.598;2023-04-06T04:29:44;99982.31;;;4.03;45.77
76603;BME280;65075;48.390;17.598;2023-04-06T04:32:10;99984.94;;;3.79;47.23
76603;BME280;65075;48.390;17.598;2023-04-06T04:34:36;99996.22;;;2.85;50.33
76603;BME280;65075;48.390;17.598;2023-04-06T04:37:05;100008.53;;;4.59;46.77
76603;BME280;65075;48.390;17.598;2023-04-06T04:39:31;99993.81;;;3.41;48.70
76603;BME280;65075;48.390;17.598;2023-04-06T04:41:57;99983.53;;;4.08;46.34
76603;BME280;65075;48.390;17.598;2023-04-06T04:44:23;99995.22;;;4.01;47.32
76603;BME280;65075;48.390;17.598;2023-04-06T04:46:48;100000.00;;;4.80;45.55
76603;BME280;65075;48.390;17.598;2023-04-06T04:49:14;99999.91;;;4.44;46.23
76603;BME280;65075;48.390;17.598;2023-04-06T04:51:40;99983.41;;;4.52;45.78
76603;BME280;65075;48.390;17.598;2023-04-06T04:54:05;99947.41;;;3.20;49.21
76603;BME280;65075;48.390;17.598;2023-04-06T04:56:31;99991.22;;;4.11;47.22
76603;BME280;65075;48.390;17.598;2023-04-06T04:58:56;99993.41;;;3.38;49.53
76603;BME280;65075;48.390;17.598;2023-04-06T05:01:22;99995.91;;;3.39;49.16
76603;BME280;65075;48.390;17.598;2023-04-06T05:03:48;99989.81;;;3.57;49.47
76603;BME280;65075;48.390;17.598;2023-04-06T05:06:13;99985.47;;;4.25;46.85
76603;BME280;65075;48.390;17.598;2023-04-06T05:08:39;99981.09;;;3.99;47.91
76603;BME280;65075;48.390;17.598;2023-04-06T05:11:05;99982.63;;;4.20;47.97
76603;BME280;65075;48.390;17.598;2023-04-06T05:13:30;99992.97;;;3.92;48.82
76603;BME280;65075;48.390;17.598;2023-04-06T05:15:57;99979.50;;;4.17;48.55
76603;BME280;65075;48.390;17.598;2023-04-06T05:18:22;99974.34;;;3.33;51.18
76603;BME280;65075;48.390;17.598;2023-04-06T05:20:48;99989.97;;;3.05;51.68
76603;BME280;65075;48.390;17.598;2023-04-06T05:23:13;99972.28;;;3.79;49.95
76603;BME280;65075;48.390;17.598;2023-04-06T05:25:40;99980.88;;;4.57;48.58
76603;BME280;65075;48.390;17.598;2023-04-06T05:28:06;99954.78;;;3.88;50.64
76603;BME280;65075;48.390;17.598;2023-04-06T05:30:31;99987.72;;;4.03;51.12
76603;BME280;65075;48.390;17.598;2023-04-06T05:32:57;99974.84;;;5.04;48.06
76603;BME280;65075;48.390;17.598;2023-04-06T05:35:23;99971.97;;;3.56;52.50
76603;BME280;65075;48.390;17.598;2023-04-06T05:37:49;99969.34;;;4.19;50.44
76603;BME280;65075;48.390;17.598;2023-04-06T05:40:15;99969.41;;;4.05;50.82
76603;BME280;65075;48.390;17.598;2023-04-06T05:42:42;99975.06;;;4.29;50.55
76603;BME280;65075;48.390;17.598;2023-04-06T05:45:09;99978.78;;;4.34;50.25
76603;BME280;65075;48.390;17.598;2023-04-06T05:47:37;99955.00;;;4.43;50.11
76603;BME280;65075;48.390;17.598;2023-04-06T05:50:03;99969.72;;;5.14;47.55
76603;BME280;65075;48.390;17.598;2023-04-06T05:52:29;99966.22;;;5.80;46.80
76603;BME280;65075;48.390;17.598;2023-04-06T05:54:54;99961.16;;;5.54;47.68
76603;BME280;65075;48.390;17.598;2023-04-06T05:57:20;99973.94;;;5.10;48.80
76603;BME280;65075;48.390;17.598;2023-04-06T05:59:45;99971.06;;;4.62;51.06
76603;BME280;65075;48.390;17.598;2023-04-06T06:02:13;99975.84;;;5.94;46.70
76603;BME280;65075;48.390;17.598;2023-04-06T06:04:39;99971.22;;;6.66;45.30
76603;BME280;65075;48.390;17.598;2023-04-06T06:07:04;99949.28;;;5.55;47.28
76603;BME280;65075;48.390;17.598;2023-04-06T06:09:30;99958.59;;;6.60;44.68
76603;BME280;65075;48.390;17.598;2023-04-06T06:11:56;99965.00;;;6.24;45.31
76603;BME280;65075;48.390;17.598;2023-04-06T06:14:21;99956.03;;;5.64;46.25
76603;BME280;65075;48.390;17.598;2023-04-06T06:16:48;99967.94;;;5.27;47.32
76603;BME280;65075;48.390;17.598;2023-04-06T06:19:13;99938.09;;;5.81;46.84
76603;BME280;65075;48.390;17.598;2023-04-06T06:21:39;99960.06;;;6.21;45.23
76603;BME280;65075;48.390;17.598;2023-04-06T06:24:05;99954.47;;;7.67;42.74
76603;BME280;65075;48.390;17.598;2023-04-06T06:26:30;99952.31;;;5.76;46.28
76603;BME280;65075;48.390;17.598;2023-04-06T06:28:56;99958.50;;;6.25;45.23
76603;BME280;65075;48.390;17.598;2023-04-06T06:31:22;99958.03;;;6.93;43.74
76603;BME280;65075;48.390;17.598;2023-04-06T06:33:48;99927.09;;;5.94;44.88
76603;BME280;65075;48.390;17.598;2023-04-06T06:36:17;99960.94;;;7.14;43.46
76603;BME280;65075;48.390;17.598;2023-04-06T06:38:44;99952.13;;;6.96;43.04
76603;BME280;65075;48.390;17.598;2023-04-06T06:41:10;99951.88;;;7.20;42.82
76603;BME280;65075;48.390;17.598;2023-04-06T06:43:36;99947.69;;;6.13;44.98
76603;BME280;65075;48.390;17.598;2023-04-06T06:46:01;99941.69;;;7.39;42.78
76603;BME280;65075;48.390;17.598;2023-04-06T06:48:27;99935.16;;;8.08;41.48
76603;BME280;65075;48.390;17.598;2023-04-06T06:50:52;99943.38;;;8.25;40.03
76603;BME280;65075;48.390;17.598;2023-04-06T06:53:19;99955.28;;;8.07;41.08
76603;BME280;65075;48.390;17.598;2023-04-06T06:55:45;99916.59;;;8.33;40.58
76603;BME280;65075;48.390;17.598;2023-04-06T06:58:11;99921.69;;;7.85;41.45
76603;BME280;65075;48.390;17.598;2023-04-06T07:00:37;99942.28;;;9.47;38.13
76603;BME280;65075;48.390;17.598;2023-04-06T07:03:02;99930.25;;;8.22;38.82
76603;BME280;65075;48.390;17.598;2023-04-06T07:05:28;99941.03;;;8.61;39.03
76603;BME280;65075;48.390;17.598;2023-04-06T07:07:54;99939.56;;;9.96;37.74
76603;BME280;65075;48.390;17.598;2023-04-06T07:10:20;99913.31;;;10.38;36.46
76603;BME280;65075;48.390;17.598;2023-04-06T07:12:45;99952.59;;;9.45;37.09
76603;BME280;65075;48.390;17.598;2023-04-06T07:15:11;99944.25;;;8.58;42.27
76603;BME280;65075;48.390;17.598;2023-04-06T07:17:37;99898.81;;;8.76;37.48
76603;BME280;65075;48.390;17.598;2023-04-06T07:20:03;99940.00;;;9.88;35.76
76603;BME280;65075;48.390;17.598;2023-04-06T07:22:29;99930.19;;;9.00;37.36
76603;BME280;65075;48.390;17.598;2023-04-06T07:24:54;99929.41;;;9.21;35.26
76603;BME280;65075;48.390;17.598;2023-04-06T07:27:20;99934.34;;;8.69;35.76
76603;BME280;65075;48.390;17.598;2023-04-06T07:29:46;99935.13;;;9.41;35.01
76603;BME280;65075;48.390;17.598;2023-04-06T07:32:11;99944.94;;;9.91;35.13
76603;BME280;65075;48.390;17.598;2023-04-06T07:34:37;99931.69;;;9.29;36.90
76603;BME280;65075;48.390;17.598;2023-04-06T07:37:03;99947.34;;;10.09;35.30
76603;BME280;65075;48.390;17.598;2023-04-06T07:39:29;99930.34;;;10.02;36.15
76603;BME280;65075;48.390;17.598;2023-04-06T07:41:54;99938.00;;;9.56;35.75
76603;BME280;65075;48.390;17.598;2023-04-06T07:44:20;99908.63;;;9.15;36.29
76603;BME280;65075;48.390;17.598;2023-04-06T07:46:46;99920.06;;;9.82;37.44
76603;BME280;65075;48.390;17.598;2023-04-06T07:49:11;99932.41;;;9.03;36.70
76603;BME280;65075;48.390;17.598;2023-04-06T07:51:38;99925.16;;;9.52;38.15
76603;BME280;65075;48.390;17.598;2023-04-06T07:54:05;99910.00;;;10.09;35.77
76603;BME280;65075;48.390;17.598;2023-04-06T07:56:33;99935.00;;;10.28;34.69
76603;BME280;65075;48.390;17.598;2023-04-06T07:58:59;99935.00;;;10.91;34.69
76603;BME280;65075;48.390;17.598;2023-04-06T08:01:25;99941.72;;;11.16;34.34
76603;BME280;65075;48.390;17.598;2023-04-06T08:03:51;99875.63;;;11.19;33.26
76603;BME280;65075;48.390;17.598;2023-04-06T08:06:16;99927.16;;;10.63;33.87
76603;BME280;65075;48.390;17.598;2023-04-06T08:08:43;99930.66;;;10.96;33.57
76603;BME280;65075;48.390;17.598;2023-04-06T08:11:09;99919.09;;;10.83;35.04
76603;BME280;65075;48.390;17.598;2023-04-06T08:13:35;99919.59;;;10.75;32.93
76603;BME280;65075;48.390;17.598;2023-04-06T08:16:01;99926.34;;;10.68;31.59
76603;BME280;65075;48.390;17.598;2023-04-06T08:18:27;99930.13;;;10.99;30.16
76603;BME280;65075;48.390;17.598;2023-04-06T08:20:55;99928.88;;;10.74;30.57
76603;BME280;65075;48.390;17.598;2023-04-06T08:23:21;99923.38;;;9.62;32.36
76603;BME280;65075;48.390;17.598;2023-04-06T08:25:47;99897.56;;;10.50;30.61
76603;BME280;65075;48.390;17.598;2023-04-06T08:28:12;99918.44;;;10.66;30.54
76603;BME280;65075;48.390;17.598;2023-04-06T08:30:42;99931.63;;;10.79;30.49
76603;BME280;65075;48.390;17.598;2023-04-06T08:33:09;99934.63;;;9.44;32.53
76603;BME280;65075;48.390;17.598;2023-04-06T08:35:35;99912.88;;;9.98;31.25
76603;BME280;65075;48.390;17.598;2023-04-06T08:38:00;99874.31;;;10.79;29.99
76603;BME280;65075;48.390;17.598;2023-04-06T08:40:27;99917.28;;;10.57;33.19
76603;BME280;65075;48.390;17.598;2023-04-06T08:42:55;99916.25;;;10.68;31.28
76603;BME280;65075;48.390;17.598;2023-04-06T08:45:22;99926.00;;;10.01;31.45
76603;BME280;65075;48.390;17.598;2023-04-06T08:47:51;99881.66;;;9.84;32.03
76603;BME280;65075;48.390;17.598;2023-04-06T08:50:20;99902.22;;;10.18;31.01
76603;BME280;65075;48.390;17.598;2023-04-06T08:52:47;99918.00;;;10.84;31.04
76603;BME280;65075;48.390;17.598;2023-04-06T08:55:14;99913.81;;;10.35;31.41
76603;BME280;65075;48.390;17.598;2023-04-06T08:57:41;99916.56;;;11.14;30.97
76603;BME280;65075;48.390;17.598;2023-04-06T09:00:10;99908.84;;;11.01;29.82
76603;BME280;65075;48.390;17.598;2023-04-06T09:02:39;99911.34;;;10.70;31.02
76603;BME280;65075;48.390;17.598;2023-04-06T09:05:08;99896.56;;;11.60;30.27
76603;BME280;65075;48.390;17.598;2023-04-06T09:07:36;99909.41;;;10.61;30.53
76603;BME280;65075;48.390;17.598;2023-04-06T09:10:04;99883.66;;;9.66;31.43
76603;BME280;65075;48.390;17.598;2023-04-06T09:12:31;99903.63;;;10.57;30.87
76603;BME280;65075;48.390;17.598;2023-04-06T09:14:58;99911.81;;;10.94;30.11
76603;BME280;65075;48.390;17.598;2023-04-06T09:17:26;99887.63;;;10.34;28.81
76603;BME280;65075;48.390;17.598;2023-04-06T09:19:52;99894.81;;;11.34;28.57
76603;BME280;65075;48.390;17.598;2023-04-06T09:22:19;99902.66;;;11.15;28.82
76603;BME280;65075;48.390;17.598;2023-04-06T09:24:50;99874.03;;;12.50;25.32
76603;BME280;65075;48.390;17.598;2023-04-06T09:27:17;99853.25;;;12.09;26.88
76603;BME280;65075;48.390;17.598;2023-04-06T09:29:44;99845.00;;;11.07;28.32
76603;BME280;65075;48.390;17.598;2023-04-06T09:32:11;99884.59;;;10.67;27.54
76603;BME280;65075;48.390;17.598;2023-04-06T09:34:38;99831.72;;;10.37;28.46
76603;BME280;65075;48.390;17.598;2023-04-06T09:39:42;99885.00;;;11.33;25.31
76603;BME280;65075;48.390;17.598;2023-04-06T09:42:46;99875.09;;;10.75;27.15
76603;BME280;65075;48.390;17.598;2023-04-06T09:45:13;99852.44;;;10.74;28.10
76603;BME280;65075;48.390;17.598;2023-04-06T09:47:42;99873.28;;;10.90;28.57
76603;BME280;65075;48.390;17.598;2023-04-06T09:50:12;99888.50;;;12.11;25.34
76603;BME280;65075;48.390;17.598;2023-04-06T09:52:46;99887.25;;;11.56;26.18
76603;BME280;65075;48.390;17.598;2023-04-06T09:55:26;99878.09;;;11.20;26.53
76603;BME280;65075;48.390;17.598;2023-04-06T09:58:07;99891.25;;;10.81;26.68
76603;BME280;65075;48.390;17.598;2023-04-06T10:00:51;99877.53;;;10.71;26.42
76603;BME280;65075;48.390;17.598;2023-04-06T10:06:11;99873.81;;;10.87;27.45
76603;BME280;65075;48.390;17.598;2023-04-06T10:08:40;99865.16;;;10.59;27.23
76603;BME280;65075;48.390;17.598;2023-04-06T10:11:08;99851.72;;;10.47;26.88
76603;BME280;65075;48.390;17.598;2023-04-06T10:13:35;99853.13;;;10.18;26.84
76603;BME280;65075;48.390;17.598;2023-04-06T10:16:04;99862.94;;;10.19;26.98
76603;BME280;65075;48.390;17.598;2023-04-06T10:18:32;99874.06;;;10.81;27.27
76603;BME280;65075;48.390;17.598;2023-04-06T10:21:08;99816.78;;;10.44;27.32
76603;BME280;65075;48.390;17.598;2023-04-06T10:23:51;99821.16;;;10.45;28.22
76603;BME280;65075;48.390;17.598;2023-04-06T10:26:20;99826.69;;;10.18;29.47
76603;BME280;65075;48.390;17.598;2023-04-06T10:28:48;99835.03;;;10.39;28.72
76603;BME280;65075;48.390;17.598;2023-04-06T10:31:15;99832.88;;;9.55;29.95
76603;BME280;65075;48.390;17.598;2023-04-06T10:33:40;99819.38;;;9.70;30.14
76603;BME280;65075;48.390;17.598;2023-04-06T10:36:14;99823.22;;;9.69;30.20
76603;BME280;65075;48.390;17.598;2023-04-06T10:38:41;99824.88;;;10.34;30.01
76603;BME280;65075;48.390;17.598;2023-04-06T10:41:11;99854.06;;;10.33;29.64
76603;BME280;65075;48.390;17.598;2023-04-06T10:43:39;99845.19;;;10.53;29.17
76603;BME280;65075;48.390;17.598;2023-04-06T10:46:07;99833.41;;;10.43;28.67
76603;BME280;65075;48.390;17.598;2023-04-06T10:48:40;99845.84;;;11.17;28.27
76603;BME280;65075;48.390;17.598;2023-04-06T10:51:15;99830.59;;;11.26;27.33
76603;BME280;65075;48.390;17.598;2023-04-06T10:53:46;99806.56;;;11.23;28.11
76603;BME280;65075;48.390;17.598;2023-04-06T10:56:16;99818.66;;;11.53;27.65
76603;BME280;65075;48.390;17.598;2023-04-06T10:58:49;99803.44;;;12.02;27.30
76603;BME280;65075;48.390;17.598;2023-04-06T11:01:20;99787.78;;;11.57;28.09
76603;BME280;65075;48.390;17.598;2023-04-06T11:03:51;99837.25;;;13.07;26.97
76603;BME280;65075;48.390;17.598;2023-04-06T11:06:30;99826.56;;;13.10;25.66
76603;BME280;65075;48.390;17.598;2023-04-06T11:08:57;99819.25;;;13.50;26.09
76603;BME280;65075;48.390;17.598;2023-04-06T11:11:25;99822.22;;;12.84;26.85
76603;BME280;65075;48.390;17.598;2023-04-06T11:13:56;99805.75;;;12.99;27.42
76603;BME280;65075;48.390;17.598;2023-04-06T11:16:29;99814.50;;;13.06;27.71
76603;BME280;65075;48.390;17.598;2023-04-06T11:19:01;99807.00;;;12.23;27.60
76603;BME280;65075;48.390;17.598;2023-04-06T11:21:41;99757.19;;;11.60;28.04
76603;BME280;65075;48.390;17.598;2023-04-06T11:29:21;99791.66;;;12.52;27.75
76603;BME280;65075;48.390;17.598;2023-04-06T11:31:52;99769.50;;;12.33;26.71
76603;BME280;65075;48.390;17.598;2023-04-06T11:34:25;99751.13;;;12.54;27.16
76603;BME280;65075;48.390;17.598;2023-04-06T11:36:58;99768.03;;;11.25;29.71
76603;BME280;65075;48.390;17.598;2023-04-06T11:39:26;99727.88;;;11.15;29.86
76603;BME280;65075;48.390;17.598;2023-04-06T11:41:59;99776.69;;;11.02;29.61
76603;BME280;65075;48.390;17.598;2023-04-06T11:47:03;99702.44;;;11.00;29.94
76603;BME280;65075;48.390;17.598;2023-04-06T11:49:32;99718.09;;;10.57;30.51
76603;BME280;65075;48.390;17.598;2023-04-06T11:52:00;99719.47;;;10.60;30.21
76603;BME280;65075;48.390;17.598;2023-04-06T11:54:36;99712.50;;;10.89;29.51
76603;BME280;65075;48.390;17.598;2023-04-06T11:57:04;99744.84;;;10.13;31.02
76603;BME280;65075;48.390;17.598;2023-04-06T11:59:31;99697.56;;;11.17;29.67
76603;BME280;65075;48.390;17.598;2023-04-06T12:01:58;99762.59;;;11.30;30.52
76603;BME280;65075;48.390;17.598;2023-04-06T12:04:24;99739.47;;;12.03;30.01
76603;BME280;65075;48.390;17.598;2023-04-06T12:06:50;99719.47;;;12.23;28.28
76603;BME280;65075;48.390;17.598;2023-04-06T12:09:16;99752.13;;;11.02;30.09
76603;BME280;65075;48.390;17.598;2023-04-06T12:11:43;99726.56;;;12.19;29.28
76603;BME280;65075;48.390;17.598;2023-04-06T12:14:09;99691.59;;;11.45;29.90
76603;BME280;65075;48.390;17.598;2023-04-06T12:16:36;99666.97;;;11.15;29.09
76603;BME280;65075;48.390;17.598;2023-04-06T12:19:03;99615.09;;;10.17;30.81
76603;BME280;65075;48.390;17.598;2023-04-06T12:21:30;99753.34;;;11.51;30.46
76603;BME280;65075;48.390;17.598;2023-04-06T12:23:58;99720.25;;;10.50;31.36
76603;BME280;65075;48.390;17.598;2023-04-06T12:26:24;99736.47;;;10.77;31.32
76603;BME280;65075;48.390;17.598;2023-04-06T12:28:50;99742.75;;;11.75;29.67
76603;BME280;65075;48.390;17.598;2023-04-06T12:31:17;99747.25;;;11.14;30.73
76603;BME280;65075;48.390;17.598;2023-04-06T12:33:47;99685.06;;;11.86;29.85
76603;BME280;65075;48.390;17.598;2023-04-06T12:36:18;99717.88;;;11.81;29.42
76603;BME280;65075;48.390;17.598;2023-04-06T12:38:47;99736.44;;;12.04;29.81
76603;BME280;65075;48.390;17.598;2023-04-06T12:41:13;99739.72;;;11.66;30.00
76603;BME280;65075;48.390;17.598;2023-04-06T12:43:40;99706.28;;;10.99;29.54
76603;BME280;65075;48.390;17.598;2023-04-06T12:46:06;99723.63;;;10.72;30.06
76603;BME280;65075;48.390;17.598;2023-04-06T12:48:31;99719.94;;;11.04;30.66
76603;BME280;65075;48.390;17.598;2023-04-06T12:51:04;99671.97;;;10.04;30.81
76603;BME280;65075;48.390;17.598;2023-04-06T12:53:32;99704.69;;;10.04;31.41
76603;BME280;65075;48.390;17.598;2023-04-06T12:55:58;99684.03;;;10.65;30.57
76603;BME280;65075;48.390;17.598;2023-04-06T12:58:25;99724.38;;;11.40;30.60
76603;BME280;65075;48.390;17.598;2023-04-06T13:00:55;99727.13;;;11.65;29.65
76603;BME280;65075;48.390;17.598;2023-04-06T13:03:23;99727.38;;;11.59;29.77
76603;BME280;65075;48.390;17.598;2023-04-06T13:05:52;99716.13;;;11.25;30.04
76603;BME280;65075;48.390;17.598;2023-04-06T13:08:19;99693.69;;;10.98;30.24